Terminal Aerodrome Forecast
Issued by NWS

Home | Current Version | Previous Version | Text Only | Print | Product List | Glossary On
Versions: 1 2 3 4 5 6 7 8 9 10 11 12 13 14 15 16 17
000
FTUS45 KGJT 271140
TAFDRO
TAF
KDRO 271140Z 2712/2812 29004KT P6SM SCT150
     FM271800 27008KT P6SM SCT250
     FM280300 29004KT P6SM SCT250
     FM280800 02004KT P6SM FEW250=

USA.gov is the U.S. government's official web portal to all federal, state and local government web resources and services.